AAL3521 KLAS-KLAX
Flight info
| Callsign | AAL3521 |
|---|---|
| Flight time | 0h 39m |
| Altitude | 28000 |
| Route | RADYR2 BLAQQ SHTNR ANJLL4 |
| Aircraft | A321/M-SDE3FGHIRWY/LB1 |
Departure
| Time | 2026-05-06 21:50 |
|---|---|
| Airport | Harry Reid International Airport (KLAS) |
Arrival
| Time | 2026-05-06 22:29 |
|---|---|
| Airport | Los Angeles International Airport (KLAX) |
| Time | Latitude | Longitude | Altitude | Speed | Heading |
|---|---|---|---|---|---|
| 2026-05-06 21:19 | 36.08018 | -115.13612 | 2138 ft | 0 kts | 67° |
| 2026-05-06 21:40 | 36.08012 | -115.13629 | 2119 ft | 4 kts | 69° |
| 2026-05-06 21:40 | 36.08002 | -115.13660 | 2121 ft | 4 kts | 72° |
| 2026-05-06 21:40 | 36.07996 | -115.13692 | 2119 ft | 4 kts | 89° |
| 2026-05-06 21:40 | 36.08000 | -115.13723 | 2120 ft | 4 kts | 125° |
| 2026-05-06 21:41 | 36.08005 | -115.13731 | 2121 ft | 2 kts | 136° |
| 2026-05-06 21:43 | 36.08005 | -115.13730 | 2121 ft | 1 kts | 136° |
| 2026-05-06 21:43 | 36.07996 | -115.13719 | 2120 ft | 4 kts | 135° |
| 2026-05-06 21:44 | 36.07976 | -115.13695 | 2122 ft | 4 kts | 135° |
| 2026-05-06 21:44 | 36.07964 | -115.13680 | 2121 ft | 2 kts | 134° |
| 2026-05-06 21:44 | 36.07957 | -115.13672 | 2121 ft | 1 kts | 135° |
| 2026-05-06 21:44 | 36.07946 | -115.13658 | 2123 ft | 3 kts | 134° |
| 2026-05-06 21:45 | 36.07926 | -115.13633 | 2122 ft | 4 kts | 135° |
| 2026-05-06 21:45 | 36.07919 | -115.13624 | 2122 ft | 0 kts | 135° |
| 2026-05-06 21:45 | 36.07917 | -115.13622 | 2122 ft | 1 kts | 135° |
| 2026-05-06 21:46 | 36.07897 | -115.13597 | 2123 ft | 7 kts | 135° |
| 2026-05-06 21:46 | 36.07861 | -115.13553 | 2125 ft | 7 kts | 135° |
| 2026-05-06 21:46 | 36.07830 | -115.13500 | 2128 ft | 9 kts | 108° |
| 2026-05-06 21:46 | 36.07827 | -115.13407 | 2127 ft | 12 kts | 90° |
| 2026-05-06 21:47 | 36.07827 | -115.13292 | 2124 ft | 15 kts | 90° |
| 2026-05-06 21:47 | 36.07827 | -115.13138 | 2121 ft | 19 kts | 90° |
| 2026-05-06 21:47 | 36.07828 | -115.12970 | 2120 ft | 20 kts | 91° |
| 2026-05-06 21:47 | 36.07828 | -115.12789 | 2117 ft | 22 kts | 90° |
| 2026-05-06 21:48 | 36.07828 | -115.12587 | 2115 ft | 24 kts | 90° |
| 2026-05-06 21:48 | 36.07828 | -115.12394 | 2118 ft | 22 kts | 90° |
| 2026-05-06 21:48 | 36.07810 | -115.12244 | 2120 ft | 17 kts | 124° |
| 2026-05-06 21:48 | 36.07752 | -115.12156 | 2121 ft | 5 kts | 131° |
| 2026-05-06 21:49 | 36.07751 | -115.12155 | 2121 ft | 0 kts | 131° |
| 2026-05-06 21:49 | 36.07726 | -115.12130 | 2123 ft | 11 kts | 154° |
| 2026-05-06 21:49 | 36.07649 | -115.12145 | 2128 ft | 12 kts | 237° |
| 2026-05-06 21:49 | 36.07642 | -115.12261 | 2124 ft | 19 kts | 270° |
| 2026-05-06 21:50 | 36.07642 | -115.12687 | 2124 ft | 87 kts | 270° |
| 2026-05-06 21:50 | 36.07641 | -115.13721 | 2126 ft | 151 kts | 270° |
| 2026-05-06 21:50 | 36.07640 | -115.15206 | 2328 ft | 181 kts | 270° |
| 2026-05-06 21:50 | 36.07638 | -115.16746 | 3124 ft | 178 kts | 271° |
| 2026-05-06 21:51 | 36.07636 | -115.18276 | 3837 ft | 179 kts | 271° |
| 2026-05-06 21:51 | 36.07630 | -115.19891 | 4130 ft | 197 kts | 271° |
| 2026-05-06 21:51 | 36.07488 | -115.21660 | 4390 ft | 217 kts | 259° |
| 2026-05-06 21:51 | 36.07181 | -115.23595 | 4638 ft | 237 kts | 260° |
| 2026-05-06 21:52 | 36.06520 | -115.25537 | 5017 ft | 255 kts | 229° |
| 2026-05-06 21:52 | 36.05025 | -115.26836 | 5392 ft | 275 kts | 202° |
| 2026-05-06 21:52 | 36.03215 | -115.27709 | 6030 ft | 284 kts | 200° |
| 2026-05-06 21:52 | 36.01343 | -115.28539 | 6816 ft | 288 kts | 200° |
| 2026-05-06 21:53 | 35.99438 | -115.29354 | 7584 ft | 292 kts | 197° |
| 2026-05-06 21:53 | 35.97432 | -115.29871 | 8315 ft | 297 kts | 192° |
| 2026-05-06 21:53 | 35.95377 | -115.30350 | 9059 ft | 303 kts | 192° |
| 2026-05-06 21:53 | 35.93291 | -115.30850 | 9810 ft | 309 kts | 192° |
| 2026-05-06 21:54 | 35.91885 | -115.31192 | 10241 ft | 315 kts | 192° |
| 2026-05-06 21:54 | 35.89648 | -115.31744 | 10458 ft | 339 kts | 192° |
| 2026-05-06 21:54 | 35.87273 | -115.32331 | 10815 ft | 355 kts | 192° |
| 2026-05-06 21:54 | 35.84828 | -115.32934 | 11467 ft | 360 kts | 191° |
| 2026-05-06 21:55 | 35.82351 | -115.33538 | 12152 ft | 364 kts | 190° |
| 2026-05-06 21:55 | 35.79853 | -115.34152 | 12898 ft | 367 kts | 190° |
| 2026-05-06 21:55 | 35.77333 | -115.34769 | 13581 ft | 372 kts | 189° |
| 2026-05-06 21:55 | 35.74773 | -115.35396 | 14193 ft | 377 kts | 189° |
| 2026-05-06 21:56 | 35.72187 | -115.36031 | 14804 ft | 381 kts | 189° |
| 2026-05-06 21:56 | 35.69570 | -115.36669 | 15434 ft | 385 kts | 189° |
| 2026-05-06 21:56 | 35.66932 | -115.37309 | 16065 ft | 388 kts | 189° |
| 2026-05-06 21:56 | 35.64267 | -115.37957 | 16698 ft | 392 kts | 189° |
| 2026-05-06 21:57 | 35.61573 | -115.38550 | 17325 ft | 395 kts | 185° |
| 2026-05-06 21:57 | 35.58828 | -115.38647 | 17942 ft | 396 kts | 174° |
| 2026-05-06 21:57 | 35.56064 | -115.38442 | 18526 ft | 399 kts | 174° |
| 2026-05-06 21:57 | 35.53278 | -115.38235 | 19057 ft | 403 kts | 174° |
| 2026-05-06 21:58 | 35.50463 | -115.38028 | 19591 ft | 407 kts | 174° |
| 2026-05-06 21:58 | 35.47629 | -115.37861 | 20119 ft | 411 kts | 178° |
| 2026-05-06 21:58 | 35.44756 | -115.38186 | 20653 ft | 417 kts | 189° |
| 2026-05-06 21:58 | 35.41945 | -115.39147 | 21164 ft | 423 kts | 200° |
| 2026-05-06 21:59 | 35.39270 | -115.40694 | 21702 ft | 427 kts | 207° |
| 2026-05-06 21:59 | 35.36631 | -115.42394 | 22242 ft | 430 kts | 207° |
| 2026-05-06 21:59 | 35.33966 | -115.44105 | 22797 ft | 434 kts | 207° |
| 2026-05-06 21:59 | 35.31280 | -115.45820 | 23315 ft | 437 kts | 207° |
| 2026-05-06 22:00 | 35.28565 | -115.47546 | 23790 ft | 441 kts | 207° |
| 2026-05-06 22:00 | 35.25830 | -115.49285 | 24205 ft | 445 kts | 207° |
| 2026-05-06 22:00 | 35.23078 | -115.51036 | 24617 ft | 448 kts | 207° |
| 2026-05-06 22:00 | 35.20304 | -115.52798 | 25026 ft | 451 kts | 207° |
| 2026-05-06 22:01 | 35.17513 | -115.54571 | 25423 ft | 454 kts | 207° |
| 2026-05-06 22:01 | 35.14712 | -115.56379 | 25823 ft | 457 kts | 210° |
| 2026-05-06 22:01 | 35.12085 | -115.58573 | 26213 ft | 459 kts | 219° |
| 2026-05-06 22:01 | 35.09751 | -115.61246 | 26612 ft | 461 kts | 227° |
| 2026-05-06 22:02 | 35.07539 | -115.64102 | 26983 ft | 464 kts | 227° |
| 2026-05-06 22:02 | 35.05308 | -115.66966 | 27336 ft | 467 kts | 227° |
| 2026-05-06 22:02 | 35.03053 | -115.69844 | 27720 ft | 470 kts | 227° |
| 2026-05-06 22:02 | 35.00783 | -115.72732 | 27999 ft | 473 kts | 227° |
| 2026-05-06 22:03 | 34.98521 | -115.75608 | 28059 ft | 462 kts | 227° |
| 2026-05-06 22:03 | 34.96330 | -115.78395 | 28057 ft | 451 kts | 227° |
| 2026-05-06 22:03 | 34.92016 | -115.83882 | 28050 ft | 446 kts | 227° |
| 2026-05-06 22:04 | 34.87720 | -115.89340 | 28042 ft | 446 kts | 227° |
| 2026-05-06 22:04 | 34.83425 | -115.94786 | 28042 ft | 446 kts | 227° |
| 2026-05-06 22:05 | 34.79121 | -116.00236 | 28044 ft | 447 kts | 227° |
| 2026-05-06 22:05 | 34.74814 | -116.05695 | 28041 ft | 447 kts | 227° |
| 2026-05-06 22:06 | 34.70524 | -116.11169 | 28034 ft | 447 kts | 227° |
| 2026-05-06 22:06 | 34.66229 | -116.16645 | 28034 ft | 447 kts | 227° |
| 2026-05-06 22:07 | 34.61929 | -116.22112 | 28039 ft | 447 kts | 227° |
| 2026-05-06 22:07 | 34.57651 | -116.27535 | 28032 ft | 448 kts | 227° |
| 2026-05-06 22:08 | 34.53338 | -116.32986 | 28032 ft | 448 kts | 227° |
| 2026-05-06 22:08 | 34.49026 | -116.38428 | 27901 ft | 444 kts | 227° |
| 2026-05-06 22:09 | 34.46881 | -116.41138 | 27650 ft | 436 kts | 227° |
| 2026-05-06 22:09 | 34.44782 | -116.43786 | 27392 ft | 440 kts | 226° |
| 2026-05-06 22:09 | 34.42684 | -116.46516 | 27141 ft | 444 kts | 232° |
| 2026-05-06 22:09 | 34.40929 | -116.49583 | 26887 ft | 442 kts | 243° |
| 2026-05-06 22:10 | 34.39563 | -116.52848 | 26655 ft | 440 kts | 246° |
| 2026-05-06 22:10 | 34.38211 | -116.56169 | 26323 ft | 439 kts | 246° |
| 2026-05-06 22:10 | 34.36857 | -116.59469 | 25900 ft | 436 kts | 246° |
| 2026-05-06 22:10 | 34.35504 | -116.62742 | 25487 ft | 433 kts | 246° |
| 2026-05-06 22:11 | 34.34155 | -116.65988 | 25056 ft | 431 kts | 246° |
| 2026-05-06 22:11 | 34.32812 | -116.69228 | 24615 ft | 430 kts | 246° |
| 2026-05-06 22:11 | 34.31492 | -116.72471 | 24178 ft | 429 kts | 246° |
| 2026-05-06 22:11 | 34.30200 | -116.75688 | 23914 ft | 420 kts | 247° |
| 2026-05-06 22:12 | 34.28934 | -116.78860 | 23460 ft | 417 kts | 247° |
| 2026-05-06 22:12 | 34.27681 | -116.81997 | 23033 ft | 413 kts | 247° |
| 2026-05-06 22:12 | 34.26432 | -116.85107 | 22555 ft | 408 kts | 246° |
| 2026-05-06 22:12 | 34.25192 | -116.88183 | 21896 ft | 406 kts | 246° |
| 2026-05-06 22:13 | 34.23957 | -116.91242 | 21492 ft | 404 kts | 246° |
| 2026-05-06 22:13 | 34.22731 | -116.94283 | 21050 ft | 402 kts | 246° |
| 2026-05-06 22:13 | 34.21511 | -116.97305 | 20612 ft | 399 kts | 247° |
| 2026-05-06 22:13 | 34.20532 | -117.00410 | 20175 ft | 393 kts | 255° |
| 2026-05-06 22:14 | 34.19688 | -117.03545 | 19741 ft | 391 kts | 256° |
| 2026-05-06 22:14 | 34.18851 | -117.06649 | 19311 ft | 387 kts | 256° |
| 2026-05-06 22:14 | 34.18015 | -117.09736 | 18887 ft | 386 kts | 255° |
| 2026-05-06 22:14 | 34.17179 | -117.12817 | 18453 ft | 386 kts | 255° |
| 2026-05-06 22:15 | 34.16343 | -117.15892 | 18016 ft | 382 kts | 255° |
| 2026-05-06 22:15 | 34.15519 | -117.18912 | 17504 ft | 377 kts | 254° |
| 2026-05-06 22:15 | 34.14697 | -117.21909 | 17094 ft | 375 kts | 254° |
| 2026-05-06 22:15 | 34.13878 | -117.24878 | 16674 ft | 371 kts | 254° |
| 2026-05-06 22:16 | 34.13063 | -117.27827 | 16255 ft | 368 kts | 254° |
| 2026-05-06 22:16 | 34.12257 | -117.30745 | 15842 ft | 366 kts | 254° |
| 2026-05-06 22:16 | 34.11454 | -117.33651 | 15430 ft | 363 kts | 254° |
| 2026-05-06 22:16 | 34.10657 | -117.36535 | 15016 ft | 361 kts | 254° |
| 2026-05-06 22:17 | 34.09885 | -117.39403 | 14606 ft | 358 kts | 255° |
| 2026-05-06 22:17 | 34.09155 | -117.42269 | 14187 ft | 356 kts | 256° |
| 2026-05-06 22:17 | 34.08452 | -117.45118 | 13786 ft | 353 kts | 256° |
| 2026-05-06 22:17 | 34.07759 | -117.47948 | 13353 ft | 351 kts | 256° |
| 2026-05-06 22:18 | 34.06985 | -117.50736 | 12961 ft | 351 kts | 249° |
| 2026-05-06 22:18 | 34.06022 | -117.53440 | 12560 ft | 349 kts | 248° |
| 2026-05-06 22:18 | 34.05061 | -117.56117 | 12158 ft | 347 kts | 248° |
| 2026-05-06 22:18 | 34.04101 | -117.58777 | 11757 ft | 345 kts | 248° |
| 2026-05-06 22:19 | 34.03149 | -117.61410 | 11359 ft | 342 kts | 248° |
| 2026-05-06 22:19 | 34.02203 | -117.64030 | 10973 ft | 340 kts | 248° |
| 2026-05-06 22:19 | 34.01265 | -117.66632 | 10564 ft | 337 kts | 249° |
| 2026-05-06 22:19 | 34.00600 | -117.69289 | 10283 ft | 322 kts | 263° |
| 2026-05-06 22:20 | 34.00317 | -117.71889 | 9734 ft | 311 kts | 266° |
| 2026-05-06 22:20 | 34.00073 | -117.74449 | 9540 ft | 304 kts | 266° |
| 2026-05-06 22:20 | 33.99831 | -117.76972 | 9469 ft | 303 kts | 266° |
| 2026-05-06 22:20 | 33.99586 | -117.79489 | 9261 ft | 303 kts | 266° |
| 2026-05-06 22:21 | 33.99340 | -117.82008 | 8873 ft | 302 kts | 266° |
| 2026-05-06 22:21 | 33.99097 | -117.84519 | 8495 ft | 301 kts | 266° |
| 2026-05-06 22:21 | 33.98854 | -117.87019 | 8128 ft | 299 kts | 266° |
| 2026-05-06 22:21 | 33.98610 | -117.89501 | 7744 ft | 299 kts | 266° |
| 2026-05-06 22:22 | 33.98367 | -117.91982 | 7364 ft | 298 kts | 265° |
| 2026-05-06 22:22 | 33.98125 | -117.94456 | 6992 ft | 297 kts | 266° |
| 2026-05-06 22:22 | 33.97884 | -117.96923 | 6616 ft | 296 kts | 266° |
| 2026-05-06 22:22 | 33.97642 | -117.99390 | 6236 ft | 296 kts | 265° |
| 2026-05-06 22:23 | 33.97391 | -118.01850 | 5854 ft | 295 kts | 266° |
| 2026-05-06 22:23 | 33.97147 | -118.04296 | 5498 ft | 292 kts | 265° |
| 2026-05-06 22:23 | 33.96911 | -118.06672 | 5169 ft | 279 kts | 264° |
| 2026-05-06 22:23 | 33.96687 | -118.08925 | 4817 ft | 262 kts | 265° |
| 2026-05-06 22:24 | 33.96476 | -118.11041 | 4484 ft | 247 kts | 265° |
| 2026-05-06 22:24 | 33.96279 | -118.13016 | 4186 ft | 229 kts | 266° |
| 2026-05-06 22:24 | 33.96093 | -118.14886 | 3891 ft | 223 kts | 265° |
| 2026-05-06 22:24 | 33.95911 | -118.16719 | 3615 ft | 216 kts | 264° |
| 2026-05-06 22:25 | 33.95736 | -118.18462 | 3342 ft | 203 kts | 264° |
| 2026-05-06 22:25 | 33.95571 | -118.20104 | 3074 ft | 192 kts | 263° |
| 2026-05-06 22:25 | 33.95417 | -118.21642 | 2840 ft | 177 kts | 263° |
| 2026-05-06 22:25 | 33.95276 | -118.23053 | 2597 ft | 163 kts | 261° |
| 2026-05-06 22:26 | 33.95144 | -118.24365 | 2395 ft | 153 kts | 262° |
| 2026-05-06 22:26 | 33.95019 | -118.25605 | 2203 ft | 148 kts | 261° |
| 2026-05-06 22:26 | 33.94896 | -118.26825 | 2035 ft | 142 kts | 261° |
| 2026-05-06 22:26 | 33.94779 | -118.27986 | 1824 ft | 139 kts | 262° |
| 2026-05-06 22:27 | 33.94664 | -118.29119 | 1643 ft | 134 kts | 260° |
| 2026-05-06 22:27 | 33.94550 | -118.30245 | 1461 ft | 134 kts | 260° |
| 2026-05-06 22:27 | 33.94440 | -118.31335 | 1288 ft | 131 kts | 261° |
| 2026-05-06 22:27 | 33.94329 | -118.32435 | 1099 ft | 133 kts | 261° |
| 2026-05-06 22:28 | 33.94216 | -118.33523 | 936 ft | 132 kts | 264° |
| 2026-05-06 22:28 | 33.94110 | -118.34625 | 736 ft | 132 kts | 261° |
| 2026-05-06 22:28 | 33.94000 | -118.35707 | 597 ft | 129 kts | 263° |
| 2026-05-06 22:28 | 33.93885 | -118.36802 | 420 ft | 133 kts | 263° |
| 2026-05-06 22:29 | 33.93779 | -118.37874 | 224 ft | 127 kts | 261° |
| 2026-05-06 22:29 | 33.93672 | -118.38918 | 128 ft | 115 kts | 262° |
| 2026-05-06 22:29 | 33.93591 | -118.39706 | 126 ft | 71 kts | 263° |
| 2026-05-06 22:29 | 33.93558 | -118.40095 | 126 ft | 33 kts | 275° |
| 2026-05-06 22:30 | 33.93599 | -118.40282 | 122 ft | 16 kts | 291° |
| 2026-05-06 22:30 | 33.93622 | -118.40363 | 125 ft | 10 kts | 283° |
| 2026-05-06 22:30 | 33.93623 | -118.40483 | 121 ft | 17 kts | 263° |
| 2026-05-06 22:30 | 33.93607 | -118.40631 | 122 ft | 19 kts | 262° |
| 2026-05-06 22:31 | 33.93595 | -118.40789 | 122 ft | 19 kts | 276° |
| 2026-05-06 22:31 | 33.93656 | -118.40892 | 123 ft | 15 kts | 342° |
| 2026-05-06 22:31 | 33.93754 | -118.40908 | 125 ft | 11 kts | 354° |
| 2026-05-06 22:31 | 33.93791 | -118.40852 | 126 ft | 10 kts | 81° |
| 2026-05-06 22:32 | 33.93805 | -118.40765 | 126 ft | 11 kts | 64° |
| 2026-05-06 22:32 | 33.93873 | -118.40723 | 126 ft | 12 kts | 36° |
| 2026-05-06 22:32 | 33.93897 | -118.40626 | 122 ft | 13 kts | 83° |
| 2026-05-06 22:32 | 33.93939 | -118.40541 | 121 ft | 12 kts | 9° |
| 2026-05-06 22:33 | 33.93980 | -118.40545 | 122 ft | 4 kts | 354° |
| 2026-05-06 22:33 | 33.94017 | -118.40550 | 124 ft | 6 kts | 352° |
| 2026-05-06 22:33 | 33.94044 | -118.40568 | 123 ft | 3 kts | 298° |
| 2026-05-06 22:33 | 33.94046 | -118.40591 | 124 ft | 3 kts | 268° |
| 2026-05-06 22:34 | 33.94044 | -118.40605 | 122 ft | 2 kts | 266° |
| 2026-05-06 22:34 | 33.94044 | -118.40612 | 123 ft | 0 kts | 263° |
| 2026-05-06 22:34 | 33.94044 | -118.40613 | 123 ft | 0 kts | 263° |